createdAt,value
2019-01-24T00:00:24.493Z,97.60
2019-01-24T00:02:53.172Z,97.60
2019-01-24T00:05:21.551Z,97.60
2019-01-24T00:07:49.955Z,97.60
2019-01-24T00:10:18.341Z,97.60
2019-01-24T00:12:46.751Z,97.20
2019-01-24T00:15:15.420Z,97.00
2019-01-24T00:17:43.916Z,97.00
2019-01-24T00:20:14.039Z,97.30
2019-01-24T00:22:42.443Z,97.40
2019-01-24T00:25:10.824Z,97.70
2019-01-24T00:27:39.267Z,97.60
2019-01-24T00:30:11.056Z,97.80
2019-01-24T00:32:39.456Z,97.70
2019-01-24T00:35:08.968Z,97.70
2019-01-24T00:37:37.436Z,97.90
2019-01-24T00:40:12.022Z,97.80
2019-01-24T00:42:40.512Z,98.10
2019-01-24T00:45:09.331Z,98.00
2019-01-24T00:47:37.798Z,97.90
2019-01-24T00:50:08.912Z,97.60
2019-01-24T00:52:37.331Z,97.50
2019-01-24T00:55:09.246Z,97.70
2019-01-24T00:57:37.660Z,97.60
2019-01-24T01:00:09.357Z,97.70
2019-01-24T01:02:37.760Z,97.80
2019-01-24T01:05:08.283Z,98.00
2019-01-24T01:07:37.003Z,97.70
2019-01-24T01:10:07.249Z,97.60
2019-01-24T01:12:35.636Z,97.70
2019-01-24T01:15:07.328Z,97.60
2019-01-24T01:17:35.712Z,97.70
2019-01-24T01:20:06.811Z,97.70
2019-01-24T01:22:35.203Z,97.60
2019-01-24T01:25:04.948Z,97.40
2019-01-24T01:27:33.332Z,97.50
2019-01-24T01:30:01.742Z,97.60
2019-01-24T01:32:30.119Z,97.80
2019-01-24T01:34:58.524Z,97.80
2019-01-24T01:37:26.903Z,97.90
2019-01-24T01:39:55.416Z,97.90
2019-01-24T01:42:24.132Z,97.60
2019-01-24T01:44:52.541Z,97.60
2019-01-24T01:47:21.227Z,97.60
2019-01-24T01:49:49.641Z,98.00
2019-01-24T01:52:18.095Z,98.10
2019-01-24T01:54:46.427Z,98.10
2019-01-24T01:57:14.799Z,98.10
2019-01-24T01:59:43.203Z,97.90
2019-01-24T02:02:11.594Z,97.80
2019-01-24T02:04:42.945Z,97.50
2019-01-24T02:07:10.033Z,97.50
2019-01-24T02:09:38.551Z,97.70
2019-01-24T02:12:06.928Z,97.70
2019-01-24T02:14:35.340Z,97.80
2019-01-24T02:17:03.725Z,98.10
2019-01-24T02:19:32.133Z,98.50
2019-01-24T02:22:00.840Z,98.90
2019-01-24T02:24:29.303Z,98.40
2019-01-24T02:26:57.727Z,98.50
2019-01-24T02:29:26.140Z,98.40
2019-01-24T02:31:54.524Z,98.30
2019-01-24T02:34:22.924Z,98.20
2019-01-24T02:36:51.308Z,98.20
2019-01-24T02:39:19.707Z,98.10
2019-01-24T02:41:48.092Z,97.70
2019-01-24T02:44:16.518Z,97.70
2019-01-24T02:46:44.893Z,98.00
2019-01-24T02:49:13.282Z,98.00
2019-01-24T02:51:41.694Z,97.80
2019-01-24T02:54:10.147Z,98.00
2019-01-24T02:56:38.547Z,98.10
2019-01-24T02:59:06.928Z,97.90
2019-01-24T03:01:35.708Z,97.70
2019-01-24T03:04:04.092Z,97.60
2019-01-24T03:06:32.491Z,97.40
2019-01-24T03:09:00.972Z,97.60
2019-01-24T03:11:29.383Z,97.40
2019-01-24T03:13:57.764Z,97.20
2019-01-24T03:16:26.167Z,97.40
2019-01-24T03:18:54.556Z,97.40
2019-01-24T03:21:22.958Z,97.40
2019-01-24T03:23:51.341Z,97.70
2019-01-24T03:26:19.754Z,97.80
2019-01-24T03:28:48.199Z,97.70
2019-01-24T03:31:16.617Z,98.00
2019-01-24T03:33:45.368Z,97.30
2019-01-24T03:36:13.780Z,97.30
2019-01-24T03:38:42.444Z,97.20
2019-01-24T03:41:10.944Z,97.10
2019-01-24T03:43:39.328Z,97.10
2019-01-24T03:46:08.075Z,97.10
2019-01-24T03:48:36.457Z,97.30
2019-01-24T03:51:04.859Z,97.30
2019-01-24T03:53:33.247Z,97.10
2019-01-24T03:56:01.657Z,97.20
2019-01-24T03:58:30.035Z,97.60
2019-01-24T04:00:58.823Z,97.50
2019-01-24T04:03:27.317Z,97.50
2019-01-24T04:05:55.724Z,97.30
2019-01-24T04:08:24.106Z,97.40
2019-01-24T04:10:52.523Z,97.30
2019-01-24T04:13:20.911Z,97.30
2019-01-24T04:15:49.313Z,97.30
2019-01-24T04:18:17.699Z,97.40
2019-01-24T04:20:46.184Z,97.20
2019-01-24T04:23:14.592Z,97.30
2019-01-24T04:25:43.325Z,97.30
2019-01-24T04:28:11.763Z,97.20
2019-01-24T04:30:40.280Z,97.30
2019-01-24T04:33:08.728Z,97.30
2019-01-24T04:35:37.113Z,97.20
2019-01-24T04:38:05.592Z,97.10
2019-01-24T04:40:34.042Z,96.80
2019-01-24T04:43:02.444Z,97.00
2019-01-24T04:45:30.820Z,97.10
2019-01-24T04:47:59.304Z,97.00
2019-01-24T04:50:27.766Z,96.90
2019-01-24T04:52:56.171Z,96.90
2019-01-24T04:55:24.605Z,96.80
2019-01-24T04:58:16.960Z,97.00
2019-01-24T05:00:45.336Z,97.10
2019-01-24T05:03:13.835Z,97.00
2019-01-24T05:05:42.225Z,97.10
2019-01-24T05:08:10.631Z,97.10
2019-01-24T05:10:39.416Z,97.10
2019-01-24T05:13:07.828Z,97.00
2019-01-24T05:15:36.215Z,97.20
2019-01-24T05:18:04.616Z,97.10
2019-01-24T05:20:32.998Z,97.00
2019-01-24T05:23:01.450Z,96.90
2019-01-24T05:25:29.831Z,97.00
2019-01-24T05:27:58.239Z,97.00
2019-01-24T05:30:26.685Z,97.10
2019-01-24T05:32:55.401Z,97.10
2019-01-24T05:35:24.006Z,97.00
2019-01-24T05:37:52.404Z,97.00
2019-01-24T05:40:20.808Z,97.60
2019-01-24T05:42:49.216Z,97.50
2019-01-24T05:45:17.659Z,97.60
2019-01-24T05:47:46.066Z,97.60
2019-01-24T05:50:14.543Z,97.50
2019-01-24T05:52:42.937Z,97.70
2019-01-24T05:55:12.978Z,98.20
2019-01-24T05:57:41.667Z,97.80
2019-01-24T06:00:16.879Z,97.60
2019-01-24T06:02:45.258Z,97.70
2019-01-24T06:05:13.781Z,97.80
2019-01-24T06:07:42.179Z,98.30
2019-01-24T06:10:15.286Z,98.10
2019-01-24T06:12:43.683Z,97.90
2019-01-24T06:15:14.517Z,97.60
2019-01-24T06:17:43.259Z,97.80
2019-01-24T06:20:11.738Z,98.20
2019-01-24T06:22:40.287Z,97.90
2019-01-24T06:25:12.897Z,97.70
2019-01-24T06:27:41.300Z,97.90
2019-01-24T06:30:16.073Z,97.50
2019-01-24T06:32:44.488Z,97.70
2019-01-24T06:35:12.873Z,97.70
2019-01-24T06:37:41.341Z,97.80
2019-01-24T06:40:14.747Z,97.90
2019-01-24T06:42:43.136Z,98.00
2019-01-24T06:45:20.322Z,98.00
2019-01-24T06:47:48.806Z,97.80
2019-01-24T06:50:18.729Z,97.50
2019-01-24T06:52:47.116Z,97.30
2019-01-24T06:55:18.363Z,97.60
2019-01-24T06:57:46.755Z,97.60
2019-01-24T07:00:19.819Z,97.40
2019-01-24T07:02:48.204Z,97.50
2019-01-24T07:05:16.925Z,97.10
2019-01-24T07:07:45.304Z,97.00
2019-01-24T07:10:18.606Z,97.20
2019-01-24T07:12:47.001Z,97.10
2019-01-24T07:15:17.432Z,97.00
2019-01-24T07:17:45.822Z,97.20
2019-01-24T07:20:15.981Z,97.20
2019-01-24T07:22:44.407Z,97.40
2019-01-24T07:25:15.820Z,97.30
2019-01-24T07:27:44.196Z,97.00
2019-01-24T07:30:15.126Z,97.40
2019-01-24T07:32:43.752Z,97.20
2019-01-24T07:35:16.818Z,96.90
2019-01-24T07:37:45.360Z,96.70
2019-01-24T07:40:20.344Z,96.70
2019-01-24T07:42:49.188Z,96.80
2019-01-24T07:45:20.570Z,96.80
2019-01-24T07:47:48.967Z,96.80
2019-01-24T07:50:17.347Z,97.10
2019-01-24T07:52:46.034Z,96.90
2019-01-24T07:55:14.492Z,97.00
2019-01-24T07:57:43.093Z,96.90
2019-01-24T08:00:20.039Z,96.70
2019-01-24T08:02:48.464Z,96.30
2019-01-24T08:05:17.186Z,96.00
2019-01-24T08:07:45.639Z,95.90
2019-01-24T08:10:18.785Z,96.00
2019-01-24T08:12:47.339Z,95.90
2019-01-24T08:15:17.614Z,95.60
2019-01-24T08:17:45.996Z,95.40
2019-01-24T08:20:24.963Z,94.90
2019-01-24T08:22:53.772Z,95.20
2019-01-24T08:25:22.195Z,95.30
2019-01-24T08:27:50.753Z,95.10
2019-01-24T08:30:23.879Z,94.70
2019-01-24T08:32:52.286Z,94.70
2019-01-24T08:35:20.664Z,94.70
2019-01-24T08:37:49.072Z,95.10
2019-01-24T08:40:21.928Z,94.50
2019-01-24T08:42:50.348Z,94.60
2019-01-24T08:45:18.734Z,94.40
2019-01-24T08:47:47.108Z,94.40
2019-01-24T08:50:20.272Z,94.40
2019-01-24T08:52:48.656Z,94.10
2019-01-24T08:55:23.590Z,93.50
2019-01-24T08:57:52.150Z,93.60
2019-01-24T09:00:21.531Z,93.00
2019-01-24T09:02:50.553Z,93.20
2019-01-24T09:05:19.023Z,92.70
2019-01-24T09:07:47.832Z,92.60
2019-01-24T09:10:22.098Z,92.40
2019-01-24T09:12:50.857Z,91.80
2019-01-24T09:15:19.260Z,91.30
2019-01-24T09:17:47.669Z,91.00
2019-01-24T09:20:18.559Z,90.30
2019-01-24T09:22:46.883Z,88.20
2019-01-24T09:25:15.276Z,86.10
2019-01-24T09:27:43.738Z,85.30
2019-01-24T09:30:24.384Z,81.80
2019-01-24T09:32:52.810Z,79.90
2019-01-24T09:35:21.184Z,76.40
2019-01-24T09:37:49.921Z,74.50
2019-01-24T09:40:20.392Z,69.90
2019-01-24T09:42:48.770Z,67.80
2019-01-24T09:45:27.823Z,65.50
2019-01-24T09:47:57.812Z,64.90
2019-01-24T09:50:26.931Z,64.00
2019-01-24T09:52:55.313Z,64.70
2019-01-24T09:55:24.079Z,64.80
2019-01-24T09:57:52.491Z,61.80
2019-01-24T10:00:23.667Z,57.60
2019-01-24T10:02:52.250Z,57.20
2019-01-24T10:05:20.972Z,56.60
2019-01-24T10:07:49.444Z,56.50
2019-01-24T10:10:20.424Z,57.30
2019-01-24T10:12:49.032Z,58.10
2019-01-24T10:15:18.572Z,58.30
2019-01-24T10:17:46.964Z,57.90
2019-01-24T10:20:20.340Z,59.70
2019-01-24T10:22:48.803Z,59.50
2019-01-24T10:25:19.725Z,59.80
2019-01-24T10:27:48.498Z,59.60
2019-01-24T10:30:20.073Z,59.90
2019-01-24T10:32:48.453Z,61.80
2019-01-24T10:35:17.120Z,62.90
2019-01-24T10:37:45.500Z,65.80
2019-01-24T10:40:22.129Z,67.60
2019-01-24T10:42:50.524Z,67.90
2019-01-24T10:45:20.880Z,70.10
2019-01-24T10:47:50.341Z,70.20
2019-01-24T10:50:20.507Z,71.30
2019-01-24T10:52:48.896Z,72.60
2019-01-24T10:55:19.128Z,74.60
2019-01-24T10:57:47.643Z,74.70
2019-01-24T11:00:27.552Z,75.30
2019-01-24T11:02:56.139Z,75.70
2019-01-24T11:05:24.575Z,75.30
2019-01-24T11:07:52.981Z,75.40
2019-01-24T11:10:21.541Z,77.40
2019-01-24T11:12:49.937Z,78.00
2019-01-24T11:15:21.023Z,78.50
2019-01-24T11:17:49.418Z,79.50
2019-01-24T11:20:19.136Z,78.80
2019-01-24T11:23:25.091Z,79.90
2019-01-24T11:25:53.492Z,80.80
2019-01-24T11:28:22.243Z,80.40
2019-01-24T11:30:50.630Z,80.20
2019-01-24T11:33:19.152Z,81.30
2019-01-24T11:35:48.676Z,81.80
2019-01-24T11:38:17.088Z,82.30
2019-01-24T11:40:45.749Z,80.70
2019-01-24T11:43:14.127Z,80.50
2019-01-24T11:45:42.576Z,81.70
2019-01-24T11:48:11.027Z,82.50
2019-01-24T11:50:39.428Z,83.30
2019-01-24T11:53:07.819Z,83.60
2019-01-24T11:55:36.299Z,83.80
2019-01-24T11:58:04.946Z,83.70
2019-01-24T12:00:37.789Z,82.50
2019-01-24T12:03:06.645Z,82.50
2019-01-24T12:05:35.063Z,82.10
2019-01-24T12:08:03.520Z,80.90
2019-01-24T12:10:31.897Z,81.80
2019-01-24T12:13:00.363Z,81.70
2019-01-24T12:15:30.250Z,81.50
2019-01-24T12:17:58.705Z,81.90
2019-01-24T12:20:27.156Z,81.50
2019-01-24T12:22:55.622Z,82.50
2019-01-24T12:25:24.001Z,84.00
2019-01-24T12:27:52.409Z,84.60
2019-01-24T12:30:28.565Z,85.20
2019-01-24T12:32:57.509Z,84.20
2019-01-24T12:35:25.941Z,84.20
2019-01-24T12:37:54.393Z,84.40
2019-01-24T12:40:22.796Z,84.20
2019-01-24T12:42:51.241Z,83.70
2019-01-24T12:45:32.888Z,83.30
2019-01-24T12:48:01.409Z,84.10
2019-01-24T12:50:29.783Z,84.30
2019-01-24T12:52:58.151Z,85.40
2019-01-24T12:55:26.713Z,85.70
2019-01-24T12:57:55.165Z,86.30
2019-01-24T13:00:32.567Z,86.70
2019-01-24T13:03:03.958Z,86.50
2019-01-24T13:05:32.421Z,86.40
2019-01-24T13:08:00.803Z,87.30
2019-01-24T13:10:29.208Z,87.40
2019-01-24T13:12:57.588Z,88.90
2019-01-24T13:15:28.292Z,87.40
2019-01-24T13:17:56.671Z,86.70
2019-01-24T13:20:25.101Z,86.00
2019-01-24T13:22:53.480Z,87.80
2019-01-24T13:25:24.760Z,87.30
2019-01-24T13:27:53.157Z,86.70
2019-01-24T13:30:23.681Z,87.60
2019-01-24T13:32:52.079Z,87.30
2019-01-24T13:35:20.459Z,87.20
2019-01-24T13:37:48.868Z,86.40
2019-01-24T13:40:20.255Z,86.10
2019-01-24T13:42:48.700Z,85.60
2019-01-24T13:45:25.803Z,85.30
2019-01-24T13:47:54.227Z,84.50
2019-01-24T13:50:22.686Z,84.90
2019-01-24T13:52:51.062Z,85.30
2019-01-24T13:55:19.620Z,85.20
2019-01-24T13:57:47.996Z,85.60
2019-01-24T14:00:28.847Z,86.10
2019-01-24T14:03:01.060Z,86.30
2019-01-24T14:05:29.462Z,87.80
2019-01-24T14:07:57.841Z,87.60
2019-01-24T14:10:26.244Z,89.40
2019-01-24T14:12:54.667Z,88.60
2019-01-24T14:15:23.162Z,88.00
2019-01-24T14:17:51.451Z,88.70
2019-01-24T14:20:21.196Z,88.60
2019-01-24T14:22:49.982Z,89.10
2019-01-24T14:25:19.741Z,89.50
2019-01-24T14:27:49.290Z,89.80
2019-01-24T14:30:25.672Z,90.20
2019-01-24T14:32:54.116Z,90.30
2019-01-24T14:35:22.860Z,90.30
2019-01-24T14:37:51.604Z,90.60
2019-01-24T14:40:20.074Z,90.80
2019-01-24T14:42:48.816Z,91.30
2019-01-24T14:45:27.891Z,91.40
2019-01-24T14:47:56.663Z,91.50
2019-01-24T14:50:29.512Z,91.30
2019-01-24T14:52:57.955Z,91.10
2019-01-24T14:55:26.355Z,91.30
2019-01-24T14:57:55.469Z,91.50
2019-01-24T15:00:28.776Z,91.50
2019-01-24T15:02:57.244Z,91.70
2019-01-24T15:05:25.655Z,91.70
2019-01-24T15:07:54.033Z,91.80
2019-01-24T15:10:22.432Z,92.30
2019-01-24T15:12:51.160Z,92.10
2019-01-24T15:15:21.526Z,92.40
2019-01-24T15:17:49.909Z,92.50
2019-01-24T15:20:19.231Z,92.90
2019-01-24T15:22:47.720Z,93.40
2019-01-24T15:25:20.557Z,93.60
2019-01-24T15:27:48.964Z,93.80
2019-01-24T15:30:25.445Z,93.90
2019-01-24T15:32:53.951Z,93.90
2019-01-24T15:35:22.336Z,93.80
2019-01-24T15:37:54.554Z,93.60
2019-01-24T15:40:29.701Z,93.40
2019-01-24T15:42:58.115Z,93.60
2019-01-24T15:45:26.494Z,93.60
2019-01-24T15:47:54.875Z,93.70
2019-01-24T15:50:24.547Z,94.00
2019-01-24T15:52:53.296Z,94.00
2019-01-24T15:55:22.061Z,94.20
2019-01-24T15:57:52.123Z,94.40
2019-01-24T16:00:26.391Z,94.30
2019-01-24T16:02:54.771Z,94.90
2019-01-24T16:05:23.185Z,94.70
2019-01-24T16:07:51.929Z,94.80
2019-01-24T16:10:24.672Z,95.00
2019-01-24T16:12:53.080Z,95.10
2019-01-24T16:15:37.455Z,95.00
2019-01-24T16:18:07.299Z,95.10
2019-01-24T16:20:35.682Z,95.00
2019-01-24T16:23:04.157Z,95.10
2019-01-24T16:25:33.772Z,95.10
2019-01-24T16:28:02.176Z,95.20
2019-01-24T16:30:32.299Z,95.30
2019-01-24T16:33:01.040Z,95.70
2019-01-24T16:35:29.587Z,95.70
2019-01-24T16:37:58.001Z,95.70
2019-01-24T16:40:28.217Z,95.50
2019-01-24T16:42:56.601Z,95.50
2019-01-24T16:45:27.515Z,95.10
2019-01-24T16:47:55.894Z,95.30
2019-01-24T16:50:25.437Z,95.60
2019-01-24T16:52:53.812Z,95.80
2019-01-24T16:55:22.215Z,95.70
2019-01-24T16:57:51.440Z,95.80
2019-01-24T17:00:35.088Z,95.50
2019-01-24T17:03:03.559Z,95.40
2019-01-24T17:05:32.047Z,95.50
2019-01-24T17:08:00.405Z,95.80
2019-01-24T17:10:29.988Z,95.70
2019-01-24T17:12:58.431Z,95.80
2019-01-24T17:15:26.783Z,95.80
2019-01-24T17:17:55.475Z,95.70
2019-01-24T17:20:28.218Z,95.60
2019-01-24T17:22:56.619Z,95.70
2019-01-24T17:25:27.423Z,95.70
2019-01-24T17:27:56.053Z,95.50
2019-01-24T17:30:28.410Z,95.60
2019-01-24T17:32:57.313Z,95.60
2019-01-24T17:35:26.102Z,95.70
2019-01-24T17:37:54.994Z,95.60
2019-01-24T17:40:30.040Z,95.70
2019-01-24T17:42:58.916Z,95.70
2019-01-24T17:45:27.294Z,95.60
2019-01-24T17:47:55.943Z,95.60
2019-01-24T17:50:24.488Z,95.80
2019-01-24T17:52:52.880Z,95.80
2019-01-24T17:55:39.339Z,95.80
2019-01-24T17:58:09.133Z,95.60
2019-01-24T18:00:39.449Z,95.60
2019-01-24T18:03:07.901Z,95.30
2019-01-24T18:05:36.468Z,95.30
2019-01-24T18:08:04.935Z,95.10
2019-01-24T18:10:33.325Z,95.30
2019-01-24T18:13:01.716Z,95.10
2019-01-24T18:15:37.047Z,95.30
2019-01-24T18:18:08.334Z,95.20
2019-01-24T18:20:37.824Z,95.20
2019-01-24T18:23:08.220Z,95.40
2019-01-24T18:25:36.630Z,95.60
2019-01-24T18:28:06.749Z,95.50
2019-01-24T18:30:35.527Z,95.00
2019-01-24T18:33:04.332Z,95.30
2019-01-24T18:35:32.710Z,95.50
2019-01-24T18:38:01.508Z,95.40
2019-01-24T18:40:31.034Z,95.30
2019-01-24T18:42:59.907Z,95.30
2019-01-24T18:45:37.448Z,95.40
2019-01-24T18:48:06.643Z,95.30
2019-01-24T18:50:35.088Z,95.20
2019-01-24T18:53:03.516Z,95.10
2019-01-24T18:55:32.266Z,95.10
2019-01-24T18:58:00.675Z,95.40
2019-01-24T19:00:36.933Z,95.40
2019-01-24T19:03:06.632Z,95.40
2019-01-24T19:05:35.086Z,95.60
2019-01-24T19:08:03.465Z,95.40
2019-01-24T19:10:31.965Z,95.50
2019-01-24T19:13:00.350Z,95.80
2019-01-24T19:15:28.824Z,95.80
2019-01-24T19:17:57.225Z,95.90
2019-01-24T19:20:25.628Z,96.00
2019-01-24T19:22:54.008Z,96.00
2019-01-24T19:25:23.003Z,95.90
2019-01-24T19:27:51.386Z,95.80
2019-01-24T19:30:22.541Z,95.80
2019-01-24T19:32:50.918Z,95.90
2019-01-24T19:35:19.308Z,96.10
2019-01-24T19:37:47.723Z,96.10
2019-01-24T19:40:20.576Z,96.00
2019-01-24T19:42:48.984Z,96.30
2019-01-24T19:45:19.435Z,96.20
2019-01-24T19:47:47.956Z,96.20
2019-01-24T19:50:21.581Z,96.30
2019-01-24T19:52:49.963Z,96.40
2019-01-24T19:55:18.439Z,96.50
2019-01-24T19:57:46.825Z,96.70
2019-01-24T20:00:18.029Z,96.60
2019-01-24T20:02:46.469Z,96.70
2019-01-24T20:05:16.897Z,96.50
2019-01-24T20:07:45.586Z,96.80
2019-01-24T20:10:17.688Z,96.70
2019-01-24T20:12:46.063Z,96.80
2019-01-24T20:15:19.829Z,96.60
2019-01-24T20:17:49.547Z,96.70
2019-01-24T20:20:18.365Z,96.80
2019-01-24T20:22:48.392Z,96.90
2019-01-24T20:25:18.937Z,96.70
2019-01-24T20:27:47.328Z,96.50
2019-01-24T20:30:18.263Z,96.40
2019-01-24T20:32:46.703Z,96.80
2019-01-24T20:35:29.939Z,97.00
2019-01-24T20:37:58.320Z,96.70
2019-01-24T20:40:26.739Z,96.60
2019-01-24T20:42:55.168Z,96.40
2019-01-24T20:45:23.558Z,96.50
2019-01-24T20:47:52.033Z,96.40
2019-01-24T20:50:20.432Z,96.40
2019-01-24T20:52:48.820Z,96.20
2019-01-24T20:55:17.200Z,95.90
2019-01-24T20:57:45.642Z,95.70
2019-01-24T21:00:16.826Z,95.60
2019-01-24T21:02:45.300Z,95.50
2019-01-24T21:05:18.631Z,95.40
2019-01-24T21:07:47.066Z,95.90
2019-01-24T21:10:17.988Z,95.20
2019-01-24T21:12:46.389Z,95.20
2019-01-24T21:15:18.993Z,95.00
2019-01-24T21:17:47.391Z,94.90
2019-01-24T21:20:20.700Z,94.60
2019-01-24T21:22:49.095Z,94.60
2019-01-24T21:25:19.224Z,94.20
2019-01-24T21:27:47.693Z,94.10
2019-01-24T21:30:19.332Z,94.00
2019-01-24T21:32:47.735Z,93.90
2019-01-24T21:35:16.423Z,94.10
2019-01-24T21:37:44.824Z,93.70
2019-01-24T21:40:16.788Z,93.70
2019-01-24T21:42:45.488Z,93.60
2019-01-24T21:45:17.383Z,93.90
2019-01-24T21:47:45.792Z,93.80
2019-01-24T21:50:17.428Z,93.70
2019-01-24T21:52:45.832Z,93.80
2019-01-24T21:55:14.864Z,93.80
2019-01-24T21:57:43.563Z,93.60
2019-01-24T22:00:17.531Z,93.70
2019-01-24T22:02:46.333Z,93.70
2019-01-24T22:05:14.957Z,93.80
2019-01-24T22:07:43.464Z,93.80
2019-01-24T22:10:14.799Z,93.50
2019-01-24T22:12:43.208Z,93.60
2019-01-24T22:15:14.560Z,93.60
2019-01-24T22:17:42.955Z,94.00
2019-01-24T22:20:13.103Z,94.00
2019-01-24T22:22:41.504Z,94.00
2019-01-24T22:25:15.468Z,94.10
2019-01-24T22:27:43.860Z,94.70
2019-01-24T22:30:15.524Z,95.10
2019-01-24T22:32:44.039Z,95.00
2019-01-24T22:35:12.574Z,94.60
2019-01-24T22:37:41.173Z,94.00
2019-01-24T22:40:12.584Z,93.80
2019-01-24T22:42:41.041Z,93.80
2019-01-24T22:45:12.718Z,94.00
2019-01-24T22:47:41.195Z,93.70
2019-01-24T22:50:12.564Z,93.60
2019-01-24T22:52:41.335Z,93.60
2019-01-24T22:55:11.176Z,93.50
2019-01-24T22:57:39.560Z,93.30
2019-01-24T23:00:19.063Z,93.10
2019-01-24T23:02:47.440Z,93.00
2019-01-24T23:05:15.899Z,92.90
2019-01-24T23:07:44.297Z,92.80
2019-01-24T23:10:12.764Z,93.40
2019-01-24T23:12:41.147Z,93.00
2019-01-24T23:15:11.300Z,93.20
2019-01-24T23:17:39.675Z,93.70
2019-01-24T23:20:12.452Z,93.00
2019-01-24T23:22:40.839Z,93.00
2019-01-24T23:25:09.500Z,92.80
2019-01-24T23:27:38.040Z,92.80
2019-01-24T23:30:10.045Z,93.10
2019-01-24T23:32:38.820Z,93.10
2019-01-24T23:35:07.583Z,93.00
2019-01-24T23:37:35.979Z,93.10
2019-01-24T23:40:06.816Z,93.30
2019-01-24T23:42:35.197Z,93.00
2019-01-24T23:45:04.379Z,93.00
2019-01-24T23:47:32.757Z,93.30
2019-01-24T23:50:01.160Z,93.30
2019-01-24T23:52:29.535Z,93.30
2019-01-24T23:54:58.024Z,93.20
2019-01-24T23:57:26.484Z,93.40
2019-01-24T23:59:54.860Z,93.10
